sensor_id;sensor_type;location;lat;lon;timestamp;P1;P2;P0
57049;PMS7003;42935;50.966;16.992;2023-02-26T00:01:51;9;8;5
57049;PMS7003;42935;50.966;16.992;2023-02-26T00:05:16;11;5;4
57049;PMS7003;42935;50.966;16.992;2023-02-26T00:08:33;8;6;4
57049;PMS7003;42935;50.966;16.992;2023-02-26T00:11:49;7;5;4
57049;PMS7003;42935;50.966;16.992;2023-02-26T00:15:10;7;7;4
57049;PMS7003;42935;50.966;16.992;2023-02-26T00:18:30;5;5;3
57049;PMS7003;42935;50.966;16.992;2023-02-26T00:21:50;8;5;3
57049;PMS7003;42935;50.966;16.992;2023-02-26T00:25:17;8;6;4
57049;PMS7003;42935;50.966;16.992;2023-02-26T00:28:37;9;5;4
57049;PMS7003;42935;50.966;16.992;2023-02-26T00:31:57;9;6;4
57049;PMS7003;42935;50.966;16.992;2023-02-26T00:35:15;10;7;5
57049;PMS7003;42935;50.966;16.992;2023-02-26T00:38:36;10;6;5
57049;PMS7003;42935;50.966;16.992;2023-02-26T00:41:54;7;6;4
57049;PMS7003;42935;50.966;16.992;2023-02-26T00:45:11;10;6;5
57049;PMS7003;42935;50.966;16.992;2023-02-26T00:52:04;6;5;4
57049;PMS7003;42935;50.966;16.992;2023-02-26T00:55:27;10;6;5
57049;PMS7003;42935;50.966;16.992;2023-02-26T00:58:47;9;7;4
57049;PMS7003;42935;50.966;16.992;2023-02-26T01:02:04;9;5;4
57049;PMS7003;42935;50.966;16.992;2023-02-26T01:05:24;10;8;6
57049;PMS7003;42935;50.966;16.992;2023-02-26T01:08:49;8;6;4
57049;PMS7003;42935;50.966;16.992;2023-02-26T01:12:16;7;6;5
57049;PMS7003;42935;50.966;16.992;2023-02-26T01:15:37;9;7;4
57049;PMS7003;42935;50.966;16.992;2023-02-26T01:19:04;10;7;5
57049;PMS7003;42935;50.966;16.992;2023-02-26T01:26:01;11;7;5
57049;PMS7003;42935;50.966;16.992;2023-02-26T01:29:31;9;5;4
57049;PMS7003;42935;50.966;16.992;2023-02-26T01:36:22;6;4;3
57049;PMS7003;42935;50.966;16.992;2023-02-26T01:43:19;7;6;5
57049;PMS7003;42935;50.966;16.992;2023-02-26T01:50:14;10;7;5
57049;PMS7003;42935;50.966;16.992;2023-02-26T01:53:40;9;7;5
57049;PMS7003;42935;50.966;16.992;2023-02-26T01:57:04;8;7;5
57049;PMS7003;42935;50.966;16.992;2023-02-26T02:00:25;9;7;6
57049;PMS7003;42935;50.966;16.992;2023-02-26T02:03:41;12;8;6
57049;PMS7003;42935;50.966;16.992;2023-02-26T02:07:00;10;8;6
57049;PMS7003;42935;50.966;16.992;2023-02-26T02:10:22;11;8;5
57049;PMS7003;42935;50.966;16.992;2023-02-26T02:38:10;10;5;4
57049;PMS7003;42935;50.966;16.992;2023-02-26T02:41:39;10;7;4
57049;PMS7003;42935;50.966;16.992;2023-02-26T02:45:08;8;6;5
57049;PMS7003;42935;50.966;16.992;2023-02-26T02:48:40;7;6;4
57049;PMS7003;42935;50.966;16.992;2023-02-26T02:52:03;8;7;5
57049;PMS7003;42935;50.966;16.992;2023-02-26T02:55:31;10;5;4
57049;PMS7003;42935;50.966;16.992;2023-02-26T02:59:17;6;4;3
57049;PMS7003;42935;50.966;16.992;2023-02-26T03:05:57;9;5;3
57049;PMS7003;42935;50.966;16.992;2023-02-26T03:09:22;8;6;5
57049;PMS7003;42935;50.966;16.992;2023-02-26T03:12:44;7;4;4
57049;PMS7003;42935;50.966;16.992;2023-02-26T03:19:37;7;4;3
57049;PMS7003;42935;50.966;16.992;2023-02-26T03:26:35;11;8;5
57049;PMS7003;42935;50.966;16.992;2023-02-26T03:33:23;8;7;5
57049;PMS7003;42935;50.966;16.992;2023-02-26T03:36:47;9;6;4
57049;PMS7003;42935;50.966;16.992;2023-02-26T03:40:20;9;6;5
57049;PMS7003;42935;50.966;16.992;2023-02-26T03:43:38;11;7;5
57049;PMS7003;42935;50.966;16.992;2023-02-26T03:47:07;8;7;5
57049;PMS7003;42935;50.966;16.992;2023-02-26T03:50:30;9;6;5
57049;PMS7003;42935;50.966;16.992;2023-02-26T03:54:13;7;5;4
57049;PMS7003;42935;50.966;16.992;2023-02-26T03:57:23;9;6;5
57049;PMS7003;42935;50.966;16.992;2023-02-26T04:00:41;10;6;4
57049;PMS7003;42935;50.966;16.992;2023-02-26T04:07:37;9;5;4
57049;PMS7003;42935;50.966;16.992;2023-02-26T04:10:58;9;6;3
57049;PMS7003;42935;50.966;16.992;2023-02-26T04:14:26;7;6;4
57049;PMS7003;42935;50.966;16.992;2023-02-26T04:17:44;8;5;4
57049;PMS7003;42935;50.966;16.992;2023-02-26T04:21:01;8;5;4
57049;PMS7003;42935;50.966;16.992;2023-02-26T04:24:21;6;5;4
57049;PMS7003;42935;50.966;16.992;2023-02-26T04:27:45;8;5;4
57049;PMS7003;42935;50.966;16.992;2023-02-26T04:31:04;5;4;2
57049;PMS7003;42935;50.966;16.992;2023-02-26T04:34:22;8;3;3
57049;PMS7003;42935;50.966;16.992;2023-02-26T04:37:38;5;3;3
57049;PMS7003;42935;50.966;16.992;2023-02-26T04:40:58;7;4;3
57049;PMS7003;42935;50.966;16.992;2023-02-26T04:44:19;7;4;4
57049;PMS7003;42935;50.966;16.992;2023-02-26T04:47:34;8;5;4
57049;PMS7003;42935;50.966;16.992;2023-02-26T04:50:54;8;6;4
57049;PMS7003;42935;50.966;16.992;2023-02-26T04:54:14;7;5;4
57049;PMS7003;42935;50.966;16.992;2023-02-26T04:57:31;5;5;4
57049;PMS7003;42935;50.966;16.992;2023-02-26T05:00:52;7;6;4
57049;PMS7003;42935;50.966;16.992;2023-02-26T05:04:10;8;7;5
57049;PMS7003;42935;50.966;16.992;2023-02-26T05:07:29;7;7;4
57049;PMS7003;42935;50.966;16.992;2023-02-26T05:10:49;8;7;5
57049;PMS7003;42935;50.966;16.992;2023-02-26T05:14:07;8;6;3
57049;PMS7003;42935;50.966;16.992;2023-02-26T05:17:27;9;6;5
57049;PMS7003;42935;50.966;16.992;2023-02-26T05:20:42;7;5;4
57049;PMS7003;42935;50.966;16.992;2023-02-26T05:24:03;5;4;4
57049;PMS7003;42935;50.966;16.992;2023-02-26T05:27:25;6;5;4
57049;PMS7003;42935;50.966;16.992;2023-02-26T05:30:54;7;4;3
57049;PMS7003;42935;50.966;16.992;2023-02-26T05:34:15;6;3;2
57049;PMS7003;42935;50.966;16.992;2023-02-26T05:37:35;6;2;2
57049;PMS7003;42935;50.966;16.992;2023-02-26T05:40:56;5;5;4
57049;PMS7003;42935;50.966;16.992;2023-02-26T05:44:11;7;4;3
57049;PMS7003;42935;50.966;16.992;2023-02-26T05:47:35;7;3;2
57049;PMS7003;42935;50.966;16.992;2023-02-26T05:51:04;4;3;2
57049;PMS7003;42935;50.966;16.992;2023-02-26T05:54:21;6;4;3
57049;PMS7003;42935;50.966;16.992;2023-02-26T05:57:39;8;5;4
57049;PMS7003;42935;50.966;16.992;2023-02-26T06:00:59;6;6;3
57049;PMS7003;42935;50.966;16.992;2023-02-26T06:04:19;6;5;4
57049;PMS7003;42935;50.966;16.992;2023-02-26T06:07:47;11;9;6
57049;PMS7003;42935;50.966;16.992;2023-02-26T06:11:04;9;6;4
57049;PMS7003;42935;50.966;16.992;2023-02-26T06:14:23;7;6;4
57049;PMS7003;42935;50.966;16.992;2023-02-26T06:17:43;8;5;4
57049;PMS7003;42935;50.966;16.992;2023-02-26T06:21:00;8;5;4
57049;PMS7003;42935;50.966;16.992;2023-02-26T06:24:18;6;6;4
57049;PMS7003;42935;50.966;16.992;2023-02-26T06:27:35;7;4;3
57049;PMS7003;42935;50.966;16.992;2023-02-26T06:30:59;8;5;4
57049;PMS7003;42935;50.966;16.992;2023-02-26T06:34:16;8;6;4
57049;PMS7003;42935;50.966;16.992;2023-02-26T06:37:32;8;3;3
57049;PMS7003;42935;50.966;16.992;2023-02-26T06:40:56;7;5;4
57049;PMS7003;42935;50.966;16.992;2023-02-26T06:44:11;8;5;4
57049;PMS7003;42935;50.966;16.992;2023-02-26T06:47:57;8;6;5
57049;PMS7003;42935;50.966;16.992;2023-02-26T06:51:25;10;8;4
57049;PMS7003;42935;50.966;16.992;2023-02-26T06:54:50;8;6;4
57049;PMS7003;42935;50.966;16.992;2023-02-26T06:58:07;6;5;4
57049;PMS7003;42935;50.966;16.992;2023-02-26T07:01:27;6;5;4
57049;PMS7003;42935;50.966;16.992;2023-02-26T07:04:50;9;5;4
57049;PMS7003;42935;50.966;16.992;2023-02-26T07:08:10;16;11;8
57049;PMS7003;42935;50.966;16.992;2023-02-26T07:11:28;25;20;14
57049;PMS7003;42935;50.966;16.992;2023-02-26T07:14:56;60;41;24
57049;PMS7003;42935;50.966;16.992;2023-02-26T07:18:13;31;27;18
57049;PMS7003;42935;50.966;16.992;2023-02-26T07:22:03;22;17;12
57049;PMS7003;42935;50.966;16.992;2023-02-26T07:25:21;13;11;8
57049;PMS7003;42935;50.966;16.992;2023-02-26T07:28:39;11;8;7
57049;PMS7003;42935;50.966;16.992;2023-02-26T07:31:59;22;14;10
57049;PMS7003;42935;50.966;16.992;2023-02-26T07:35:22;20;10;8
57049;PMS7003;42935;50.966;16.992;2023-02-26T07:38:39;13;9;7
57049;PMS7003;42935;50.966;16.992;2023-02-26T07:42:02;15;9;7
57049;PMS7003;42935;50.966;16.992;2023-02-26T07:45:21;16;11;7
57049;PMS7003;42935;50.966;16.992;2023-02-26T07:48:36;11;8;6
57049;PMS7003;42935;50.966;16.992;2023-02-26T07:51:54;12;10;7
57049;PMS7003;42935;50.966;16.992;2023-02-26T07:55:11;17;12;8
57049;PMS7003;42935;50.966;16.992;2023-02-26T07:58:31;8;7;5
57049;PMS7003;42935;50.966;16.992;2023-02-26T08:01:49;16;11;7
57049;PMS7003;42935;50.966;16.992;2023-02-26T08:05:07;23;16;12
57049;PMS7003;42935;50.966;16.992;2023-02-26T08:08:31;38;22;14
57049;PMS7003;42935;50.966;16.992;2023-02-26T08:11:51;34;24;16
57049;PMS7003;42935;50.966;16.992;2023-02-26T08:15:11;31;20;12
57049;PMS7003;42935;50.966;16.992;2023-02-26T08:18:31;48;31;18
57049;PMS7003;42935;50.966;16.992;2023-02-26T08:21:51;24;17;10
57049;PMS7003;42935;50.966;16.992;2023-02-26T08:25:12;15;10;8
57049;PMS7003;42935;50.966;16.992;2023-02-26T08:28:31;20;13;8
57049;PMS7003;42935;50.966;16.992;2023-02-26T08:31:49;22;11;7
57049;PMS7003;42935;50.966;16.992;2023-02-26T08:35:09;11;8;6
57049;PMS7003;42935;50.966;16.992;2023-02-26T08:38:28;10;9;5
57049;PMS7003;42935;50.966;16.992;2023-02-26T08:41:44;11;7;5
57049;PMS7003;42935;50.966;16.992;2023-02-26T08:44:59;11;9;7
57049;PMS7003;42935;50.966;16.992;2023-02-26T08:48:18;24;19;12
57049;PMS7003;42935;50.966;16.992;2023-02-26T08:51:42;18;12;8
57049;PMS7003;42935;50.966;16.992;2023-02-26T08:55:01;11;9;6
57049;PMS7003;42935;50.966;16.992;2023-02-26T08:58:25;10;8;6
57049;PMS7003;42935;50.966;16.992;2023-02-26T09:01:42;12;7;6
57049;PMS7003;42935;50.966;16.992;2023-02-26T09:05:05;27;23;14
57049;PMS7003;42935;50.966;16.992;2023-02-26T09:08:37;46;34;22
57049;PMS7003;42935;50.966;16.992;2023-02-26T09:12:02;60;41;26
57049;PMS7003;42935;50.966;16.992;2023-02-26T09:15:20;37;27;19
57049;PMS7003;42935;50.966;16.992;2023-02-26T09:18:35;27;20;13
57049;PMS7003;42935;50.966;16.992;2023-02-26T09:21:54;15;10;7
57049;PMS7003;42935;50.966;16.992;2023-02-26T09:25:15;12;10;7
57049;PMS7003;42935;50.966;16.992;2023-02-26T09:28:31;10;9;7
57049;PMS7003;42935;50.966;16.992;2023-02-26T09:31:52;20;16;9
57049;PMS7003;42935;50.966;16.992;2023-02-26T09:35:09;10;8;6
57049;PMS7003;42935;50.966;16.992;2023-02-26T09:38:29;41;30;19
57049;PMS7003;42935;50.966;16.992;2023-02-26T09:41:53;27;23;16
57049;PMS7003;42935;50.966;16.992;2023-02-26T09:48:58;41;33;19
57049;PMS7003;42935;50.966;16.992;2023-02-26T09:55:47;33;24;16
57049;PMS7003;42935;50.966;16.992;2023-02-26T09:59:09;19;14;10
57049;PMS7003;42935;50.966;16.992;2023-02-26T10:02:35;19;13;9
57049;PMS7003;42935;50.966;16.992;2023-02-26T10:13:04;17;12;8
57049;PMS7003;42935;50.966;16.992;2023-02-26T10:16:28;32;24;16
57049;PMS7003;42935;50.966;16.992;2023-02-26T10:19:50;19;14;10
57049;PMS7003;42935;50.966;16.992;2023-02-26T10:26:44;25;18;11
57049;PMS7003;42935;50.966;16.992;2023-02-26T10:30:15;10;9;6
57049;PMS7003;42935;50.966;16.992;2023-02-26T10:37:19;17;11;8
57049;PMS7003;42935;50.966;16.992;2023-02-26T10:40:49;19;14;9
57049;PMS7003;42935;50.966;16.992;2023-02-26T10:44:23;18;17;11
57049;PMS7003;42935;50.966;16.992;2023-02-26T10:51:25;34;23;13
57049;PMS7003;42935;50.966;16.992;2023-02-26T10:54:59;34;21;13
57049;PMS7003;42935;50.966;16.992;2023-02-26T10:58:25;35;23;15
57049;PMS7003;42935;50.966;16.992;2023-02-26T11:01:49;20;14;9
57049;PMS7003;42935;50.966;16.992;2023-02-26T11:05:16;15;9;6
57049;PMS7003;42935;50.966;16.992;2023-02-26T11:08:36;10;7;4
57049;PMS7003;42935;50.966;16.992;2023-02-26T11:15:28;6;6;4
57049;PMS7003;42935;50.966;16.992;2023-02-26T11:18:52;10;8;5
57049;PMS7003;42935;50.966;16.992;2023-02-26T11:22:11;16;14;10
57049;PMS7003;42935;50.966;16.992;2023-02-26T11:25:33;16;11;7
57049;PMS7003;42935;50.966;16.992;2023-02-26T11:28:55;16;11;7
57049;PMS7003;42935;50.966;16.992;2023-02-26T11:32:32;12;7;6
57049;PMS7003;42935;50.966;16.992;2023-02-26T11:36:00;15;10;8
57049;PMS7003;42935;50.966;16.992;2023-02-26T11:39:26;17;12;8
57049;PMS7003;42935;50.966;16.992;2023-02-26T11:42:57;24;18;12
57049;PMS7003;42935;50.966;16.992;2023-02-26T11:46:23;49;33;21
57049;PMS7003;42935;50.966;16.992;2023-02-26T11:49:52;28;17;12
57049;PMS7003;42935;50.966;16.992;2023-02-26T11:56:45;9;8;6
57049;PMS7003;42935;50.966;16.992;2023-02-26T12:00:15;9;7;5
57049;PMS7003;42935;50.966;16.992;2023-02-26T12:03:36;11;8;6
57049;PMS7003;42935;50.966;16.992;2023-02-26T12:06:58;12;8;6
57049;PMS7003;42935;50.966;16.992;2023-02-26T12:10:17;14;8;5
57049;PMS7003;42935;50.966;16.992;2023-02-26T12:27:59;18;15;10
57049;PMS7003;42935;50.966;16.992;2023-02-26T12:35:00;11;7;5
57049;PMS7003;42935;50.966;16.992;2023-02-26T12:54:02;38;28;18
57049;PMS7003;42935;50.966;16.992;2023-02-26T12:57:41;32;26;17
57049;PMS7003;42935;50.966;16.992;2023-02-26T13:08:07;9;8;6
57049;PMS7003;42935;50.966;16.992;2023-02-26T13:15:15;12;8;6
57049;PMS7003;42935;50.966;16.992;2023-02-26T13:25:50;23;16;11
57049;PMS7003;42935;50.966;16.992;2023-02-26T13:29:23;41;29;17
57049;PMS7003;42935;50.966;16.992;2023-02-26T13:32:46;24;19;13
57049;PMS7003;42935;50.966;16.992;2023-02-26T13:36:09;19;14;9
57049;PMS7003;42935;50.966;16.992;2023-02-26T13:39:34;16;10;6
57049;PMS7003;42935;50.966;16.992;2023-02-26T13:43:07;15;13;10
57049;PMS7003;42935;50.966;16.992;2023-02-26T13:50:11;21;17;11
57049;PMS7003;42935;50.966;16.992;2023-02-26T13:53:34;11;8;6
57049;PMS7003;42935;50.966;16.992;2023-02-26T14:00:28;7;6;4
57049;PMS7003;42935;50.966;16.992;2023-02-26T14:04:06;7;5;4
57049;PMS7003;42935;50.966;16.992;2023-02-26T14:10:56;21;14;9
57049;PMS7003;42935;50.966;16.992;2023-02-26T14:14:17;10;5;4
57049;PMS7003;42935;50.966;16.992;2023-02-26T14:17:48;16;10;6
57049;PMS7003;42935;50.966;16.992;2023-02-26T14:28:34;50;37;22
57049;PMS7003;42935;50.966;16.992;2023-02-26T14:35:28;12;8;7
57049;PMS7003;42935;50.966;16.992;2023-02-26T14:38:53;16;12;8
57049;PMS7003;42935;50.966;16.992;2023-02-26T14:42:19;15;10;6
57049;PMS7003;42935;50.966;16.992;2023-02-26T14:45:41;23;20;14
57049;PMS7003;42935;50.966;16.992;2023-02-26T14:49:17;16;12;8
57049;PMS7003;42935;50.966;16.992;2023-02-26T15:24:26;24;21;15
57049;PMS7003;42935;50.966;16.992;2023-02-26T15:27:48;27;19;14
57049;PMS7003;42935;50.966;16.992;2023-02-26T15:31:10;28;26;16
57049;PMS7003;42935;50.966;16.992;2023-02-26T15:34:31;25;21;14
57049;PMS7003;42935;50.966;16.992;2023-02-26T15:37:48;29;24;17
57049;PMS7003;42935;50.966;16.992;2023-02-26T15:41:09;25;21;16
57049;PMS7003;42935;50.966;16.992;2023-02-26T15:44:31;22;19;14
57049;PMS7003;42935;50.966;16.992;2023-02-26T15:47:52;18;14;9
57049;PMS7003;42935;50.966;16.992;2023-02-26T15:51:15;25;20;15
57049;PMS7003;42935;50.966;16.992;2023-02-26T15:54:44;33;23;14
57049;PMS7003;42935;50.966;16.992;2023-02-26T15:58:11;45;35;21
57049;PMS7003;42935;50.966;16.992;2023-02-26T16:01:43;66;47;27
57049;PMS7003;42935;50.966;16.992;2023-02-26T16:05:09;32;25;17
57049;PMS7003;42935;50.966;16.992;2023-02-26T16:08:40;35;28;17
57049;PMS7003;42935;50.966;16.992;2023-02-26T16:11:59;26;22;16
57049;PMS7003;42935;50.966;16.992;2023-02-26T16:15:34;24;20;14
57049;PMS7003;42935;50.966;16.992;2023-02-26T16:19:00;30;23;16
57049;PMS7003;42935;50.966;16.992;2023-02-26T16:22:28;23;17;13
57049;PMS7003;42935;50.966;16.992;2023-02-26T16:26:01;38;32;20
57049;PMS7003;42935;50.966;16.992;2023-02-26T16:29:24;41;32;21
57049;PMS7003;42935;50.966;16.992;2023-02-26T16:32:52;34;26;18
57049;PMS7003;42935;50.966;16.992;2023-02-26T16:36:12;25;18;12
57049;PMS7003;42935;50.966;16.992;2023-02-26T16:39:45;54;39;24
57049;PMS7003;42935;50.966;16.992;2023-02-26T16:46:44;36;28;20
57049;PMS7003;42935;50.966;16.992;2023-02-26T16:50:15;52;41;27
57049;PMS7003;42935;50.966;16.992;2023-02-26T16:53:42;36;30;21
57049;PMS7003;42935;50.966;16.992;2023-02-26T16:57:17;28;22;16
57049;PMS7003;42935;50.966;16.992;2023-02-26T17:00:46;35;26;19
57049;PMS7003;42935;50.966;16.992;2023-02-26T17:04:14;50;37;24
57049;PMS7003;42935;50.966;16.992;2023-02-26T17:07:47;53;38;25
57049;PMS7003;42935;50.966;16.992;2023-02-26T17:11:29;60;40;26
57049;PMS7003;42935;50.966;16.992;2023-02-26T17:14:59;61;43;26
57049;PMS7003;42935;50.966;16.992;2023-02-26T17:18:15;59;42;26
57049;PMS7003;42935;50.966;16.992;2023-02-26T17:21:48;61;44;28
57049;PMS7003;42935;50.966;16.992;2023-02-26T17:25:19;53;37;25
57049;PMS7003;42935;50.966;16.992;2023-02-26T17:28:44;45;35;24
57049;PMS7003;42935;50.966;16.992;2023-02-26T17:32:15;50;36;23
57049;PMS7003;42935;50.966;16.992;2023-02-26T17:35:35;59;43;27
57049;PMS7003;42935;50.966;16.992;2023-02-26T17:39:00;55;41;25
57049;PMS7003;42935;50.966;16.992;2023-02-26T17:42:21;60;43;25
57049;PMS7003;42935;50.966;16.992;2023-02-26T17:45:49;46;32;20
57049;PMS7003;42935;50.966;16.992;2023-02-26T17:49:09;31;24;16
57049;PMS7003;42935;50.966;16.992;2023-02-26T17:52:37;30;22;14
57049;PMS7003;42935;50.966;16.992;2023-02-26T17:56:02;40;32;20
57049;PMS7003;42935;50.966;16.992;2023-02-26T17:59:24;43;31;21
57049;PMS7003;42935;50.966;16.992;2023-02-26T18:02:53;45;36;22
57049;PMS7003;42935;50.966;16.992;2023-02-26T18:06:14;53;38;25
57049;PMS7003;42935;50.966;16.992;2023-02-26T18:09:33;45;37;25
57049;PMS7003;42935;50.966;16.992;2023-02-26T18:12:56;59;42;28
57049;PMS7003;42935;50.966;16.992;2023-02-26T18:16:18;56;41;25
57049;PMS7003;42935;50.966;16.992;2023-02-26T18:19:49;76;57;38
57049;PMS7003;42935;50.966;16.992;2023-02-26T18:23:14;90;72;43
57049;PMS7003;42935;50.966;16.992;2023-02-26T18:26:35;123;89;50
57049;PMS7003;42935;50.966;16.992;2023-02-26T18:29:57;137;103;58
57049;PMS7003;42935;50.966;16.992;2023-02-26T18:33:22;92;69;42
57049;PMS7003;42935;50.966;16.992;2023-02-26T18:36:45;82;63;40
57049;PMS7003;42935;50.966;16.992;2023-02-26T18:40:11;84;61;38
57049;PMS7003;42935;50.966;16.992;2023-02-26T18:43:33;73;52;33
57049;PMS7003;42935;50.966;16.992;2023-02-26T18:46:58;77;55;35
57049;PMS7003;42935;50.966;16.992;2023-02-26T18:50:20;75;54;32
57049;PMS7003;42935;50.966;16.992;2023-02-26T18:53:38;73;52;34
57049;PMS7003;42935;50.966;16.992;2023-02-26T18:57:07;65;47;29
57049;PMS7003;42935;50.966;16.992;2023-02-26T19:00:33;69;49;33
57049;PMS7003;42935;50.966;16.992;2023-02-26T19:04:03;57;42;27
57049;PMS7003;42935;50.966;16.992;2023-02-26T19:07:30;75;57;35
57049;PMS7003;42935;50.966;16.992;2023-02-26T19:10:58;78;54;34
57049;PMS7003;42935;50.966;16.992;2023-02-26T19:14:20;83;59;36
57049;PMS7003;42935;50.966;16.992;2023-02-26T19:17:50;90;68;37
57049;PMS7003;42935;50.966;16.992;2023-02-26T19:21:15;79;55;35
57049;PMS7003;42935;50.966;16.992;2023-02-26T19:24:43;62;45;29
57049;PMS7003;42935;50.966;16.992;2023-02-26T19:28:07;62;44;27
57049;PMS7003;42935;50.966;16.992;2023-02-26T19:31:27;71;50;32
57049;PMS7003;42935;50.966;16.992;2023-02-26T19:34:56;89;61;38
57049;PMS7003;42935;50.966;16.992;2023-02-26T19:38:18;73;52;33
57049;PMS7003;42935;50.966;16.992;2023-02-26T19:41:41;66;46;28
57049;PMS7003;42935;50.966;16.992;2023-02-26T19:45:03;64;45;28
57049;PMS7003;42935;50.966;16.992;2023-02-26T19:48:24;50;39;25
57049;PMS7003;42935;50.966;16.992;2023-02-26T19:51:46;52;37;23
57049;PMS7003;42935;50.966;16.992;2023-02-26T19:55:07;41;32;21
57049;PMS7003;42935;50.966;16.992;2023-02-26T19:58:26;41;33;21
57049;PMS7003;42935;50.966;16.992;2023-02-26T20:01:49;40;31;20
57049;PMS7003;42935;50.966;16.992;2023-02-26T20:05:07;38;29;20
57049;PMS7003;42935;50.966;16.992;2023-02-26T20:08:29;37;29;19
57049;PMS7003;42935;50.966;16.992;2023-02-26T20:11:50;38;26;15
57049;PMS7003;42935;50.966;16.992;2023-02-26T20:15:13;41;30;20
57049;PMS7003;42935;50.966;16.992;2023-02-26T20:18:38;54;38;25
57049;PMS7003;42935;50.966;16.992;2023-02-26T20:22:00;50;38;25
57049;PMS7003;42935;50.966;16.992;2023-02-26T20:25:21;45;32;21
57049;PMS7003;42935;50.966;16.992;2023-02-26T20:28:46;42;32;20
57049;PMS7003;42935;50.966;16.992;2023-02-26T20:32:04;38;31;20
57049;PMS7003;42935;50.966;16.992;2023-02-26T20:35:25;37;27;18
57049;PMS7003;42935;50.966;16.992;2023-02-26T20:38:45;49;34;23
57049;PMS7003;42935;50.966;16.992;2023-02-26T20:42:03;40;30;19
57049;PMS7003;42935;50.966;16.992;2023-02-26T20:45:26;40;29;19
57049;PMS7003;42935;50.966;16.992;2023-02-26T20:48:54;41;30;20
57049;PMS7003;42935;50.966;16.992;2023-02-26T20:52:27;60;41;24
57049;PMS7003;42935;50.966;16.992;2023-02-26T20:55:50;93;57;32
57049;PMS7003;42935;50.966;16.992;2023-02-26T20:59:10;201;118;50
57049;PMS7003;42935;50.966;16.992;2023-02-26T21:02:38;182;110;50
57049;PMS7003;42935;50.966;16.992;2023-02-26T21:06:09;114;69;34
57049;PMS7003;42935;50.966;16.992;2023-02-26T21:09:40;89;55;30
57049;PMS7003;42935;50.966;16.992;2023-02-26T21:13:01;44;26;18
57049;PMS7003;42935;50.966;16.992;2023-02-26T21:16:32;33;24;15
57049;PMS7003;42935;50.966;16.992;2023-02-26T21:20:00;54;36;21
57049;PMS7003;42935;50.966;16.992;2023-02-26T21:23:20;66;42;25
57049;PMS7003;42935;50.966;16.992;2023-02-26T21:26:45;66;43;25
57049;PMS7003;42935;50.966;16.992;2023-02-26T21:30:06;66;46;25
57049;PMS7003;42935;50.966;16.992;2023-02-26T21:33:33;67;45;26
57049;PMS7003;42935;50.966;16.992;2023-02-26T21:36:55;74;52;31
57049;PMS7003;42935;50.966;16.992;2023-02-26T21:40:20;105;70;38
57049;PMS7003;42935;50.966;16.992;2023-02-26T21:43:44;84;57;34
57049;PMS7003;42935;50.966;16.992;2023-02-26T21:47:05;63;45;27
57049;PMS7003;42935;50.966;16.992;2023-02-26T21:50:30;57;42;26
57049;PMS7003;42935;50.966;16.992;2023-02-26T21:53:58;65;45;28
57049;PMS7003;42935;50.966;16.992;2023-02-26T21:57:25;65;47;30
57049;PMS7003;42935;50.966;16.992;2023-02-26T22:00:50;66;48;29
57049;PMS7003;42935;50.966;16.992;2023-02-26T22:04:10;68;47;28
57049;PMS7003;42935;50.966;16.992;2023-02-26T22:07:34;51;36;22
57049;PMS7003;42935;50.966;16.992;2023-02-26T22:10:58;61;46;28
57049;PMS7003;42935;50.966;16.992;2023-02-26T22:14:19;62;46;29
57049;PMS7003;42935;50.966;16.992;2023-02-26T22:17:43;61;43;27
57049;PMS7003;42935;50.966;16.992;2023-02-26T22:21:07;56;39;25
57049;PMS7003;42935;50.966;16.992;2023-02-26T22:24:29;55;40;25
57049;PMS7003;42935;50.966;16.992;2023-02-26T22:27:53;56;40;26
57049;PMS7003;42935;50.966;16.992;2023-02-26T22:31:17;50;38;24
57049;PMS7003;42935;50.966;16.992;2023-02-26T22:34:45;52;38;24
57049;PMS7003;42935;50.966;16.992;2023-02-26T22:38:09;46;35;23
57049;PMS7003;42935;50.966;16.992;2023-02-26T22:41:35;59;40;25
57049;PMS7003;42935;50.966;16.992;2023-02-26T22:44:56;53;38;26
57049;PMS7003;42935;50.966;16.992;2023-02-26T22:48:28;51;38;24
57049;PMS7003;42935;50.966;16.992;2023-02-26T22:51:51;54;39;25
57049;PMS7003;42935;50.966;16.992;2023-02-26T22:55:13;55;39;25
57049;PMS7003;42935;50.966;16.992;2023-02-26T22:58:33;49;35;23
57049;PMS7003;42935;50.966;16.992;2023-02-26T23:01:59;51;38;24
57049;PMS7003;42935;50.966;16.992;2023-02-26T23:05:21;49;37;24
57049;PMS7003;42935;50.966;16.992;2023-02-26T23:08:41;43;34;21
57049;PMS7003;42935;50.966;16.992;2023-02-26T23:12:00;39;29;19
57049;PMS7003;42935;50.966;16.992;2023-02-26T23:15:24;45;32;17
57049;PMS7003;42935;50.966;16.992;2023-02-26T23:18:44;34;25;17
57049;PMS7003;42935;50.966;16.992;2023-02-26T23:22:06;41;29;19
57049;PMS7003;42935;50.966;16.992;2023-02-26T23:25:30;38;28;19
57049;PMS7003;42935;50.966;16.992;2023-02-26T23:28:50;33;24;16
57049;PMS7003;42935;50.966;16.992;2023-02-26T23:32:13;41;33;22
57049;PMS7003;42935;50.966;16.992;2023-02-26T23:35:39;44;34;20
57049;PMS7003;42935;50.966;16.992;2023-02-26T23:38:59;36;27;19
57049;PMS7003;42935;50.966;16.992;2023-02-26T23:42:23;36;28;17
57049;PMS7003;42935;50.966;16.992;2023-02-26T23:45:40;37;28;18
57049;PMS7003;42935;50.966;16.992;2023-02-26T23:49:00;33;27;17
57049;PMS7003;42935;50.966;16.992;2023-02-26T23:52:20;39;28;18
57049;PMS7003;42935;50.966;16.992;2023-02-26T23:55:38;35;24;16
57049;PMS7003;42935;50.966;16.992;2023-02-26T23:59:02;43;26;17
